BCS943 LIPZ-LIMC
Flight info
| Callsign | BCS943 |
|---|---|
| Flight time | N/A |
| Altitude | 19000 |
| Route | VIC L615 IBUGO/N0391F180 L615 OSKOR/N0384F170 DCT LEGLO DCT PEXUG |
| Aircraft | B738/M-SDE2E3FGHIRWXY/LB1 |
Departure
| Time | 2026-05-05 20:13 |
|---|---|
| Airport | Venice Marco Polo Airport (LIPZ) |
Arrival
| Time | N/A |
|---|---|
| Airport | Milan Malpensa International Airport (LIMC) |
| Time | Latitude | Longitude | Altitude | Speed | Heading |
|---|---|---|---|---|---|
| 2026-05-05 19:58 | 45.50823 | 12.34628 | 15 ft | 0 kts | 89° |
| 2026-05-05 20:04 | 45.50822 | 12.34606 | 15 ft | 2 kts | 89° |
| 2026-05-05 20:05 | 45.50822 | 12.34582 | 15 ft | 2 kts | 88° |
| 2026-05-05 20:05 | 45.50821 | 12.34559 | 15 ft | 2 kts | 82° |
| 2026-05-05 20:05 | 45.50814 | 12.34538 | 15 ft | 2 kts | 29° |
| 2026-05-05 20:05 | 45.50803 | 12.34522 | 17 ft | 2 kts | 64° |
| 2026-05-05 20:06 | 45.50798 | 12.34500 | 16 ft | 2 kts | 87° |
| 2026-05-05 20:06 | 45.50799 | 12.34480 | 15 ft | 1 kts | 122° |
| 2026-05-05 20:06 | 45.50800 | 12.34478 | 15 ft | 0 kts | 127° |
| 2026-05-05 20:07 | 45.50783 | 12.34511 | 15 ft | 10 kts | 127° |
| 2026-05-05 20:07 | 45.50711 | 12.34622 | 14 ft | 20 kts | 133° |
| 2026-05-05 20:08 | 45.50620 | 12.34740 | 15 ft | 0 kts | 173° |
| 2026-05-05 20:08 | 45.50579 | 12.34719 | 15 ft | 16 kts | 219° |
| 2026-05-05 20:08 | 45.50447 | 12.34550 | 15 ft | 36 kts | 224° |
| 2026-05-05 20:08 | 45.50283 | 12.34339 | 15 ft | 24 kts | 221° |
| 2026-05-05 20:09 | 45.50160 | 12.34182 | 15 ft | 23 kts | 222° |
| 2026-05-05 20:09 | 45.50032 | 12.34059 | 14 ft | 22 kts | 184° |
| 2026-05-05 20:09 | 45.49886 | 12.34021 | 14 ft | 22 kts | 216° |
| 2026-05-05 20:09 | 45.49773 | 12.33883 | 14 ft | 21 kts | 224° |
| 2026-05-05 20:10 | 45.49693 | 12.33823 | 15 ft | 0 kts | 188° |
| 2026-05-05 20:10 | 45.49691 | 12.33820 | 15 ft | 2 kts | 214° |
| 2026-05-05 20:10 | 45.49627 | 12.33730 | 15 ft | 19 kts | 222° |
| 2026-05-05 20:10 | 45.49549 | 12.33709 | 15 ft | 10 kts | 141° |
| 2026-05-05 20:11 | 45.49497 | 12.33798 | 14 ft | 14 kts | 127° |
| 2026-05-05 20:11 | 45.49497 | 12.33877 | 15 ft | 7 kts | 52° |
| 2026-05-05 20:11 | 45.49508 | 12.33892 | 14 ft | 0 kts | 42° |
| 2026-05-05 20:12 | 45.49629 | 12.34047 | 13 ft | 53 kts | 42° |
| 2026-05-05 20:12 | 45.50060 | 12.34606 | 14 ft | 112 kts | 42° |
| 2026-05-05 20:12 | 45.50769 | 12.35510 | 20 ft | 159 kts | 40° |
| 2026-05-05 20:13 | 45.51642 | 12.36625 | 358 ft | 178 kts | 44° |
| 2026-05-05 20:13 | 45.52551 | 12.38002 | 508 ft | 210 kts | 46° |
| 2026-05-05 20:13 | 45.53439 | 12.39650 | 1104 ft | 207 kts | 71° |
| 2026-05-05 20:13 | 45.53559 | 12.41635 | 1761 ft | 205 kts | 99° |
| 2026-05-05 20:14 | 45.53341 | 12.43792 | 1985 ft | 229 kts | 101° |
| 2026-05-05 20:14 | 45.52723 | 12.45968 | 2083 ft | 255 kts | 131° |
| 2026-05-05 20:14 | 45.51312 | 12.47456 | 2743 ft | 254 kts | 162° |
| 2026-05-05 20:14 | 45.49589 | 12.47690 | 3504 ft | 253 kts | 192° |
| 2026-05-05 20:15 | 45.47995 | 12.46634 | 4087 ft | 257 kts | 223° |
| 2026-05-05 20:15 | 45.46982 | 12.44566 | 4799 ft | 257 kts | 252° |
| 2026-05-05 20:15 | 45.46860 | 12.42060 | 5548 ft | 257 kts | 279° |
| 2026-05-05 20:15 | 45.47329 | 12.39603 | 6308 ft | 258 kts | 286° |
| 2026-05-05 20:16 | 45.47898 | 12.37170 | 6947 ft | 261 kts | 287° |
| 2026-05-05 20:16 | 45.48491 | 12.34707 | 7596 ft | 264 kts | 287° |
| 2026-05-05 20:16 | 45.49086 | 12.32220 | 8245 ft | 267 kts | 286° |
| 2026-05-05 20:16 | 45.49682 | 12.29704 | 8909 ft | 269 kts | 285° |
| 2026-05-05 20:17 | 45.50277 | 12.27164 | 9572 ft | 271 kts | 285° |
| 2026-05-05 20:17 | 45.50874 | 12.24593 | 10186 ft | 275 kts | 285° |
| 2026-05-05 20:17 | 45.51489 | 12.21917 | 10395 ft | 294 kts | 285° |
| 2026-05-05 20:17 | 45.52146 | 12.19056 | 10564 ft | 313 kts | 286° |
| 2026-05-05 20:18 | 45.52902 | 12.16042 | 10712 ft | 332 kts | 287° |
| 2026-05-05 20:18 | 45.53708 | 12.12868 | 10912 ft | 348 kts | 287° |
| 2026-05-05 20:18 | 45.54475 | 12.09735 | 11355 ft | 354 kts | 286° |
| 2026-05-05 20:18 | 45.55261 | 12.06398 | 11983 ft | 356 kts | 285° |
| 2026-05-05 20:19 | 45.56029 | 12.03033 | 12590 ft | 358 kts | 285° |
| 2026-05-05 20:19 | 45.56789 | 11.99623 | 13146 ft | 362 kts | 285° |
| 2026-05-05 20:19 | 45.57547 | 11.96178 | 13748 ft | 365 kts | 284° |
| 2026-05-05 20:19 | 45.58304 | 11.92708 | 14267 ft | 368 kts | 284° |
| 2026-05-05 20:20 | 45.59055 | 11.89259 | 14802 ft | 370 kts | 284° |
| 2026-05-05 20:20 | 45.59818 | 11.85744 | 15338 ft | 372 kts | 284° |
| 2026-05-05 20:20 | 45.60584 | 11.82208 | 15853 ft | 374 kts | 284° |
| 2026-05-05 20:20 | 45.61366 | 11.78597 | 16361 ft | 377 kts | 283° |
| 2026-05-05 20:21 | 45.62142 | 11.75010 | 16865 ft | 380 kts | 283° |
| 2026-05-05 20:21 | 45.62922 | 11.71394 | 17357 ft | 382 kts | 283° |
| 2026-05-05 20:21 | 45.63598 | 11.67720 | 17838 ft | 382 kts | 277° |
| 2026-05-05 20:21 | 45.63858 | 11.63949 | 18288 ft | 382 kts | 268° |
| 2026-05-05 20:22 | 45.63880 | 11.60148 | 18724 ft | 384 kts | 267° |
| 2026-05-05 20:22 | 45.63898 | 11.56328 | 19158 ft | 385 kts | 267° |
| 2026-05-05 20:22 | 45.63932 | 11.52488 | 19592 ft | 387 kts | 268° |
| 2026-05-05 20:22 | 45.63977 | 11.48678 | 20003 ft | 390 kts | 268° |
| 2026-05-05 20:23 | 45.64026 | 11.44790 | 20411 ft | 392 kts | 268° |
| 2026-05-05 20:23 | 45.64073 | 11.40887 | 20789 ft | 394 kts | 268° |
| 2026-05-05 20:23 | 45.64119 | 11.36941 | 21196 ft | 396 kts | 267° |
| 2026-05-05 20:23 | 45.64162 | 11.33008 | 21604 ft | 398 kts | 267° |
| 2026-05-05 20:24 | 45.64202 | 11.29041 | 22013 ft | 400 kts | 267° |
| 2026-05-05 20:24 | 45.64242 | 11.25053 | 22368 ft | 402 kts | 267° |
| 2026-05-05 20:24 | 45.64281 | 11.21049 | 22823 ft | 402 kts | 267° |
| 2026-05-05 20:24 | 45.64319 | 11.17056 | 23286 ft | 402 kts | 267° |
| 2026-05-05 20:25 | 45.64356 | 11.13063 | 23749 ft | 401 kts | 267° |
| 2026-05-05 20:25 | 45.64392 | 11.09094 | 23960 ft | 400 kts | 266° |
| 2026-05-05 20:25 | 45.64425 | 11.05087 | 23998 ft | 406 kts | 266° |
| 2026-05-05 20:25 | 45.64456 | 11.01018 | 24003 ft | 414 kts | 266° |
| 2026-05-05 20:26 | 45.64490 | 10.96874 | 24002 ft | 420 kts | 266° |
| 2026-05-05 20:26 | 45.64525 | 10.92659 | 23999 ft | 426 kts | 266° |
| 2026-05-05 20:26 | 45.64561 | 10.88391 | 24006 ft | 432 kts | 266° |
| 2026-05-05 20:26 | 45.64602 | 10.84074 | 23973 ft | 436 kts | 268° |
| 2026-05-05 20:27 | 45.64691 | 10.79728 | 23992 ft | 439 kts | 266° |
| 2026-05-05 20:27 | 45.64703 | 10.75349 | 24002 ft | 442 kts | 266° |
| 2026-05-05 20:27 | 45.64705 | 10.70957 | 23995 ft | 441 kts | 266° |
| 2026-05-05 20:27 | 45.64722 | 10.66641 | 23992 ft | 440 kts | 266° |
| 2026-05-05 20:28 | 45.64749 | 10.62270 | 23992 ft | 439 kts | 266° |
| 2026-05-05 20:28 | 45.64775 | 10.57907 | 23999 ft | 439 kts | 266° |
| 2026-05-05 20:28 | 45.64795 | 10.53546 | 23991 ft | 437 kts | 266° |
| 2026-05-05 20:28 | 45.64815 | 10.49282 | 24003 ft | 419 kts | 266° |
| 2026-05-05 20:29 | 45.64831 | 10.45195 | 23998 ft | 408 kts | 266° |
| 2026-05-05 20:29 | 45.64840 | 10.41111 | 23996 ft | 414 kts | 265° |
| 2026-05-05 20:29 | 45.64849 | 10.36963 | 24007 ft | 420 kts | 266° |
| 2026-05-05 20:29 | 45.64862 | 10.32765 | 24007 ft | 426 kts | 266° |
| 2026-05-05 20:30 | 45.64873 | 10.28502 | 23998 ft | 432 kts | 265° |
| 2026-05-05 20:30 | 45.64881 | 10.24191 | 23987 ft | 435 kts | 266° |
| 2026-05-05 20:30 | 45.64898 | 10.19861 | 23987 ft | 435 kts | 266° |
| 2026-05-05 20:30 | 45.64912 | 10.15540 | 23988 ft | 435 kts | 266° |
| 2026-05-05 20:31 | 45.64919 | 10.11221 | 23997 ft | 435 kts | 266° |
| 2026-05-05 20:31 | 45.64932 | 10.06901 | 23988 ft | 435 kts | 266° |
| 2026-05-05 20:31 | 45.64950 | 10.02582 | 24003 ft | 433 kts | 266° |
| 2026-05-05 20:31 | 45.64968 | 9.98281 | 24001 ft | 430 kts | 266° |
| 2026-05-05 20:32 | 45.64988 | 9.94095 | 23982 ft | 412 kts | 265° |
| 2026-05-05 20:32 | 45.65004 | 9.90126 | 23977 ft | 396 kts | 265° |
| 2026-05-05 20:32 | 45.65016 | 9.86266 | 23977 ft | 380 kts | 265° |
| 2026-05-05 20:32 | 45.65025 | 9.82561 | 23980 ft | 366 kts | 265° |
| 2026-05-05 20:33 | 45.65032 | 9.78992 | 23976 ft | 352 kts | 265° |
| 2026-05-05 20:33 | 45.65044 | 9.75568 | 23974 ft | 338 kts | 265° |
| 2026-05-05 20:33 | 45.65113 | 9.72271 | 23976 ft | 326 kts | 266° |
| 2026-05-05 20:33 | 45.65195 | 9.69063 | 23986 ft | 323 kts | 266° |
| 2026-05-05 20:34 | 45.65245 | 9.66926 | 23999 ft | 325 kts | 266° |
| 2026-05-05 20:34 | 45.65316 | 9.63686 | 24012 ft | 327 kts | 266° |
| 2026-05-05 20:34 | 45.65141 | 9.60469 | 23989 ft | 321 kts | 250° |
| 2026-05-05 20:34 | 45.64325 | 9.57536 | 23992 ft | 317 kts | 238° |
| 2026-05-05 20:35 | 45.63063 | 9.54980 | 24113 ft | 315 kts | 227° |
| 2026-05-05 20:35 | 45.61433 | 9.52897 | 24099 ft | 315 kts | 215° |
| 2026-05-05 20:35 | 45.59529 | 9.51337 | 24103 ft | 316 kts | 205° |
| 2026-05-05 20:35 | 45.57412 | 9.50459 | 24095 ft | 321 kts | 189° |
| 2026-05-05 20:36 | 45.55172 | 9.50493 | 24086 ft | 328 kts | 174° |
| 2026-05-05 20:36 | 45.52987 | 9.51569 | 24115 ft | 337 kts | 159° |
| 2026-05-05 20:36 | 45.50996 | 9.53405 | 24105 ft | 346 kts | 148° |
| 2026-05-05 20:36 | 45.49258 | 9.55829 | 24089 ft | 356 kts | 134° |
| 2026-05-05 20:37 | 45.48014 | 9.58936 | 24109 ft | 367 kts | 120° |
| 2026-05-05 20:37 | 45.47083 | 9.62349 | 24085 ft | 370 kts | 117° |
| 2026-05-05 20:37 | 45.46190 | 9.65790 | 24077 ft | 371 kts | 117° |
| 2026-05-05 20:37 | 45.45489 | 9.69353 | 24044 ft | 381 kts | 101° |
| 2026-05-05 20:38 | 45.45585 | 9.73168 | 24071 ft | 391 kts | 82° |
| 2026-05-05 20:38 | 45.46484 | 9.76858 | 24056 ft | 400 kts | 63° |
| 2026-05-05 20:38 | 45.48157 | 9.80019 | 23988 ft | 403 kts | 42° |
| 2026-05-05 20:38 | 45.50463 | 9.82246 | 23996 ft | 401 kts | 20° |
| 2026-05-05 20:39 | 45.53092 | 9.83246 | 24000 ft | 393 kts | 359° |
| 2026-05-05 20:39 | 45.55772 | 9.82988 | 24008 ft | 382 kts | 339° |
| 2026-05-05 20:39 | 45.58182 | 9.81589 | 24000 ft | 369 kts | 320° |
| 2026-05-05 20:39 | 45.60143 | 9.79336 | 24001 ft | 358 kts | 305° |
| 2026-05-05 20:40 | 45.61609 | 9.76543 | 23996 ft | 347 kts | 290° |
| 2026-05-05 20:40 | 45.62568 | 9.73420 | 23999 ft | 342 kts | 284° |
| 2026-05-05 20:40 | 45.63401 | 9.70237 | 23987 ft | 342 kts | 283° |
| 2026-05-05 20:40 | 45.64237 | 9.67043 | 23990 ft | 343 kts | 284° |
| 2026-05-05 20:41 | 45.65088 | 9.63862 | 23986 ft | 343 kts | 284° |
| 2026-05-05 20:41 | 45.65750 | 9.60644 | 23979 ft | 332 kts | 269° |
| 2026-05-05 20:41 | 45.65701 | 9.57419 | 24004 ft | 321 kts | 255° |
| 2026-05-05 20:41 | 45.65100 | 9.54392 | 24101 ft | 314 kts | 243° |
| 2026-05-05 20:42 | 45.64049 | 9.51689 | 24102 ft | 310 kts | 231° |
| 2026-05-05 20:42 | 45.62588 | 9.49444 | 24095 ft | 309 kts | 219° |
| 2026-05-05 20:42 | 45.60769 | 9.47800 | 24098 ft | 310 kts | 206° |
| 2026-05-05 20:42 | 45.58701 | 9.46888 | 24103 ft | 314 kts | 192° |
| 2026-05-05 20:43 | 45.56496 | 9.46781 | 24108 ft | 322 kts | 178° |
| 2026-05-05 20:43 | 45.54294 | 9.47529 | 24102 ft | 332 kts | 164° |
| 2026-05-05 20:43 | 45.52244 | 9.49157 | 24107 ft | 344 kts | 149° |
| 2026-05-05 20:43 | 45.50501 | 9.51487 | 24107 ft | 355 kts | 136° |
| 2026-05-05 20:44 | 45.49196 | 9.54543 | 24110 ft | 368 kts | 121° |
| 2026-05-05 20:44 | 45.48244 | 9.57957 | 24100 ft | 373 kts | 117° |
| 2026-05-05 20:44 | 45.47349 | 9.61436 | 24099 ft | 374 kts | 117° |
| 2026-05-05 20:44 | 45.46434 | 9.64913 | 24079 ft | 375 kts | 118° |
| 2026-05-05 20:45 | 45.45461 | 9.72104 | 24070 ft | 378 kts | 88° |
| 2026-05-05 20:45 | 45.46123 | 9.75767 | 24052 ft | 388 kts | 69° |
| 2026-05-05 20:45 | 45.47544 | 9.79070 | 23998 ft | 395 kts | 49° |
| 2026-05-05 20:46 | 45.49635 | 9.81611 | 23999 ft | 397 kts | 27° |
| 2026-05-05 20:46 | 45.52178 | 9.83040 | 24002 ft | 392 kts | 6° |
| 2026-05-05 20:46 | 45.54838 | 9.83217 | 23997 ft | 383 kts | 346° |
| 2026-05-05 20:46 | 45.57353 | 9.82208 | 24003 ft | 371 kts | 326° |
| 2026-05-05 20:47 | 45.59465 | 9.80236 | 23997 ft | 358 kts | 310° |
| 2026-05-05 20:47 | 45.61121 | 9.77655 | 23991 ft | 347 kts | 296° |
| 2026-05-05 20:47 | 45.62219 | 9.74672 | 24008 ft | 336 kts | 285° |
| 2026-05-05 20:47 | 45.63057 | 9.71575 | 23988 ft | 334 kts | 283° |
| 2026-05-05 20:48 | 45.63864 | 9.68466 | 23985 ft | 333 kts | 283° |
| 2026-05-05 20:48 | 45.64684 | 9.65374 | 23984 ft | 332 kts | 284° |
| 2026-05-05 20:48 | 45.65494 | 9.62298 | 23983 ft | 328 kts | 279° |
| 2026-05-05 20:48 | 45.65772 | 9.59158 | 24002 ft | 313 kts | 261° |
| 2026-05-05 20:49 | 45.65423 | 9.56131 | 23985 ft | 306 kts | 248° |
| 2026-05-05 20:49 | 45.64606 | 9.53360 | 24105 ft | 301 kts | 237° |
| 2026-05-05 20:49 | 45.63397 | 9.50987 | 24071 ft | 298 kts | 225° |
| 2026-05-05 20:49 | 45.62121 | 9.48672 | 23756 ft | 300 kts | 241° |
| 2026-05-05 20:50 | 45.61525 | 9.45780 | 23265 ft | 309 kts | 258° |
| 2026-05-05 20:50 | 45.61410 | 9.42698 | 22795 ft | 313 kts | 264° |
| 2026-05-05 20:50 | 45.61428 | 9.39589 | 22385 ft | 313 kts | 265° |
| 2026-05-05 20:50 | 45.61473 | 9.36484 | 22022 ft | 312 kts | 266° |
| 2026-05-05 20:51 | 45.61518 | 9.33399 | 21661 ft | 310 kts | 266° |
| 2026-05-05 20:51 | 45.61554 | 9.30324 | 21293 ft | 308 kts | 266° |
| 2026-05-05 20:51 | 45.61574 | 9.28299 | 20974 ft | 308 kts | 265° |
| 2026-05-05 20:51 | 45.61583 | 9.27267 | 20858 ft | 307 kts | 265° |
| 2026-05-05 20:52 | 45.61606 | 9.24225 | 20574 ft | 304 kts | 265° |
| 2026-05-05 20:52 | 45.61627 | 9.21271 | 20529 ft | 292 kts | 265° |
| 2026-05-05 20:52 | 45.61645 | 9.18412 | 20445 ft | 282 kts | 265° |
| 2026-05-05 20:52 | 45.61660 | 9.15669 | 20368 ft | 272 kts | 265° |
| 2026-05-05 20:53 | 45.61674 | 9.13020 | 20264 ft | 262 kts | 265° |
| 2026-05-05 20:53 | 45.61684 | 9.10443 | 20008 ft | 258 kts | 265° |
| 2026-05-05 20:53 | 45.61692 | 9.07880 | 19661 ft | 258 kts | 265° |
| 2026-05-05 20:53 | 45.61700 | 9.05320 | 19331 ft | 258 kts | 265° |
| 2026-05-05 20:54 | 45.61708 | 9.02772 | 19021 ft | 256 kts | 265° |
| 2026-05-05 20:54 | 45.61716 | 9.00227 | 18712 ft | 256 kts | 265° |
| 2026-05-05 20:54 | 45.61719 | 8.99407 | 18612 ft | 255 kts | 265° |